createdAt,value
2017-08-16T00:00:48.256Z,10.90
2017-08-16T00:03:15.629Z,10.70
2017-08-16T00:05:42.993Z,11.03
2017-08-16T00:08:10.330Z,11.40
2017-08-16T00:10:37.676Z,10.40
2017-08-16T00:13:05.015Z,10.90
2017-08-16T00:15:32.370Z,10.40
2017-08-16T00:17:59.700Z,10.47
2017-08-16T00:20:27.022Z,10.33
2017-08-16T00:22:54.332Z,10.40
2017-08-16T00:25:21.665Z,10.33
2017-08-16T00:27:48.978Z,9.77
2017-08-16T00:30:16.307Z,9.70
2017-08-16T00:32:43.643Z,9.83
2017-08-16T00:35:11.297Z,10.40
2017-08-16T00:37:38.645Z,10.00
2017-08-16T00:40:05.994Z,9.87
2017-08-16T00:42:33.619Z,9.80
2017-08-16T00:45:00.945Z,10.10
2017-08-16T00:47:28.309Z,10.40
2017-08-16T00:49:55.661Z,9.97
2017-08-16T00:52:23.226Z,9.73
2017-08-16T00:54:50.586Z,9.20
2017-08-16T00:57:17.907Z,9.20
2017-08-16T00:59:45.245Z,9.30
2017-08-16T01:02:12.564Z,9.30
2017-08-16T01:04:40.716Z,9.63
2017-08-16T01:07:08.362Z,8.53
2017-08-16T01:09:35.706Z,9.00
2017-08-16T01:12:02.997Z,9.33
2017-08-16T01:14:30.288Z,8.37
2017-08-16T01:16:57.665Z,8.10
2017-08-16T01:19:24.971Z,8.27
2017-08-16T01:21:52.295Z,8.60
2017-08-16T01:24:19.611Z,8.00
2017-08-16T01:26:46.916Z,7.87
2017-08-16T01:29:14.213Z,8.13
2017-08-16T01:31:41.543Z,8.57
2017-08-16T01:34:08.861Z,7.83
2017-08-16T01:36:36.214Z,8.77
2017-08-16T01:39:03.530Z,8.47
2017-08-16T01:41:30.866Z,8.83
2017-08-16T01:43:58.171Z,7.87
2017-08-16T01:46:25.487Z,9.37
2017-08-16T01:48:52.888Z,8.60
2017-08-16T01:51:20.494Z,8.20
2017-08-16T01:53:47.799Z,8.80
2017-08-16T01:56:15.107Z,7.67
2017-08-16T01:58:42.444Z,7.90
2017-08-16T02:01:09.766Z,7.73
2017-08-16T02:03:37.372Z,7.90
2017-08-16T02:06:04.661Z,8.30
2017-08-16T02:08:31.970Z,8.67
2017-08-16T02:10:59.287Z,8.43
2017-08-16T02:13:26.611Z,8.10
2017-08-16T02:15:54.452Z,8.37
2017-08-16T02:18:21.766Z,8.60
2017-08-16T02:20:49.062Z,8.53
2017-08-16T02:23:16.563Z,8.60
2017-08-16T02:25:43.916Z,8.60
2017-08-16T02:28:11.255Z,8.00
2017-08-16T02:30:38.641Z,8.10
2017-08-16T02:33:05.957Z,8.93
2017-08-16T02:35:33.285Z,8.20
2017-08-16T02:38:00.946Z,9.10
2017-08-16T02:40:28.258Z,8.30
2017-08-16T02:42:55.915Z,8.40
2017-08-16T02:45:23.241Z,8.53
2017-08-16T02:47:50.571Z,9.00
2017-08-16T02:50:17.867Z,7.90
2017-08-16T02:52:45.164Z,8.23
2017-08-16T02:55:12.526Z,8.77
2017-08-16T02:57:39.860Z,9.27
2017-08-16T03:00:07.444Z,8.27
2017-08-16T03:02:34.743Z,8.90
2017-08-16T03:05:02.090Z,9.50
2017-08-16T03:07:29.408Z,9.40
2017-08-16T03:09:56.724Z,9.57
2017-08-16T03:12:24.036Z,9.07
2017-08-16T03:14:51.340Z,8.60
2017-08-16T03:17:18.664Z,9.10
2017-08-16T03:19:45.996Z,9.27
2017-08-16T03:22:13.294Z,8.73
2017-08-16T03:24:40.613Z,9.50
2017-08-16T03:27:07.924Z,9.07
2017-08-16T03:29:36.224Z,9.03
2017-08-16T03:32:03.558Z,9.90
2017-08-16T03:34:30.853Z,9.00
2017-08-16T03:36:58.164Z,8.67
2017-08-16T03:39:25.453Z,8.07
2017-08-16T03:41:52.769Z,8.80
2017-08-16T03:44:20.059Z,9.57
2017-08-16T03:46:47.411Z,9.70
2017-08-16T03:49:14.715Z,8.77
2017-08-16T03:51:42.108Z,9.50
2017-08-16T03:54:09.409Z,8.23
2017-08-16T03:56:36.778Z,7.80
2017-08-16T03:59:04.099Z,8.50
2017-08-16T04:01:31.453Z,8.33
2017-08-16T04:03:58.779Z,8.67
2017-08-16T04:06:26.128Z,8.07
2017-08-16T04:08:53.458Z,8.10
2017-08-16T04:11:20.782Z,7.83
2017-08-16T04:13:48.077Z,7.60
2017-08-16T04:16:15.394Z,8.10
2017-08-16T04:18:42.707Z,7.93
2017-08-16T04:21:10.024Z,7.83
2017-08-16T04:23:37.502Z,7.50
2017-08-16T04:26:04.812Z,7.60
2017-08-16T04:28:32.106Z,7.47
2017-08-16T04:30:59.448Z,7.93
2017-08-16T04:33:26.769Z,7.40
2017-08-16T04:35:54.058Z,7.60
2017-08-16T04:38:21.389Z,7.07
2017-08-16T04:40:50.135Z,6.83
2017-08-16T04:43:17.544Z,7.53
2017-08-16T04:45:44.905Z,6.60
2017-08-16T04:48:12.212Z,7.13
2017-08-16T04:50:39.540Z,7.40
2017-08-16T04:53:06.869Z,7.67
2017-08-16T04:55:34.179Z,6.87
2017-08-16T04:58:01.490Z,6.77
2017-08-16T05:00:28.867Z,6.70
2017-08-16T05:02:56.200Z,6.33
2017-08-16T05:05:23.531Z,6.50
2017-08-16T05:07:50.843Z,6.47
2017-08-16T05:10:18.137Z,6.20
2017-08-16T05:12:45.464Z,6.20
2017-08-16T05:15:12.793Z,6.50
2017-08-16T05:17:40.083Z,5.90
2017-08-16T05:20:07.605Z,6.27
2017-08-16T05:22:34.899Z,6.43
2017-08-16T05:25:02.199Z,6.20
2017-08-16T05:27:29.489Z,6.60
2017-08-16T05:29:56.801Z,6.50
2017-08-16T05:32:24.102Z,6.93
2017-08-16T05:34:51.466Z,6.23
2017-08-16T05:37:18.741Z,6.60
2017-08-16T05:39:46.060Z,6.33
2017-08-16T05:42:13.361Z,7.30
2017-08-16T05:44:40.708Z,6.70
2017-08-16T05:47:08.010Z,6.00
2017-08-16T05:49:35.493Z,7.23
2017-08-16T05:52:02.821Z,6.93
2017-08-16T05:54:30.276Z,6.60
2017-08-16T05:56:57.574Z,7.33
2017-08-16T05:59:24.881Z,7.20
2017-08-16T06:01:52.202Z,6.83
2017-08-16T06:04:19.535Z,7.80
2017-08-16T06:06:46.884Z,7.70
2017-08-16T06:09:14.191Z,7.50
2017-08-16T06:11:41.507Z,7.10
2017-08-16T06:14:08.807Z,7.20
2017-08-16T06:16:36.122Z,7.17
2017-08-16T06:19:03.434Z,7.93
2017-08-16T06:21:30.775Z,7.40
2017-08-16T06:23:58.253Z,7.27
2017-08-16T06:26:25.619Z,7.33
2017-08-16T06:28:52.937Z,7.37
2017-08-16T06:31:20.272Z,7.50
2017-08-16T06:33:47.604Z,8.10
2017-08-16T06:36:14.926Z,7.40
2017-08-16T06:38:42.283Z,7.73
2017-08-16T06:41:09.601Z,8.70
2017-08-16T06:43:36.937Z,8.87
2017-08-16T06:46:04.241Z,8.47
2017-08-16T06:48:31.593Z,8.50
2017-08-16T06:50:58.913Z,9.63
2017-08-16T06:53:26.466Z,9.57
2017-08-16T06:55:53.805Z,9.90
2017-08-16T06:58:21.346Z,9.00
2017-08-16T07:00:48.990Z,9.73
2017-08-16T07:03:16.674Z,10.00
2017-08-16T07:05:43.994Z,9.47
2017-08-16T07:08:11.345Z,10.17
2017-08-16T07:10:38.659Z,10.80
2017-08-16T07:13:05.991Z,9.73
2017-08-16T07:15:33.306Z,10.30
2017-08-16T07:18:00.639Z,10.77
2017-08-16T07:20:27.957Z,10.90
2017-08-16T07:22:55.284Z,10.20
2017-08-16T07:25:22.610Z,10.37
2017-08-16T07:27:49.962Z,11.40
2017-08-16T07:30:17.312Z,11.70
2017-08-16T07:32:44.667Z,10.57
2017-08-16T07:35:12.910Z,11.53
2017-08-16T07:37:40.264Z,11.43
2017-08-16T07:40:07.889Z,11.53
2017-08-16T07:42:35.527Z,12.17
2017-08-16T07:45:02.908Z,11.50
2017-08-16T07:47:30.223Z,11.23
2017-08-16T07:49:57.559Z,12.77
2017-08-16T07:52:24.926Z,12.03
2017-08-16T07:54:52.253Z,12.63
2017-08-16T07:57:19.734Z,13.03
2017-08-16T07:59:47.091Z,14.73
2017-08-16T08:02:14.601Z,14.77
2017-08-16T08:04:41.935Z,14.00
2017-08-16T08:07:09.398Z,15.90
2017-08-16T08:09:37.090Z,17.00
2017-08-16T08:12:04.761Z,18.80
2017-08-16T08:14:32.232Z,20.93
2017-08-16T08:17:00.623Z,20.70
2017-08-16T08:19:28.069Z,22.70
2017-08-16T08:21:55.434Z,23.10
2017-08-16T08:24:22.757Z,23.60
2017-08-16T08:26:50.078Z,21.90
2017-08-16T08:29:17.382Z,21.93
2017-08-16T08:31:44.750Z,17.07
2017-08-16T08:34:12.104Z,15.93
2017-08-16T08:36:39.493Z,12.70
2017-08-16T08:39:06.878Z,15.50
2017-08-16T08:41:35.265Z,16.43
2017-08-16T08:44:02.579Z,17.30
2017-08-16T08:46:30.022Z,16.93
2017-08-16T08:48:57.532Z,14.97
2017-08-16T08:51:24.987Z,15.67
2017-08-16T08:53:52.350Z,16.53
2017-08-16T08:56:19.849Z,15.80
2017-08-16T08:58:47.174Z,12.43
2017-08-16T09:01:14.498Z,11.97
2017-08-16T09:03:41.818Z,15.33
2017-08-16T09:06:09.143Z,13.00
2017-08-16T09:08:36.501Z,13.57
2017-08-16T09:11:04.005Z,14.10
2017-08-16T09:13:31.366Z,15.87
2017-08-16T09:15:58.715Z,14.70
2017-08-16T09:18:26.053Z,14.97
2017-08-16T09:20:53.431Z,13.00
2017-08-16T09:23:21.048Z,13.50
2017-08-16T09:25:48.446Z,13.87
2017-08-16T09:28:15.842Z,14.27
2017-08-16T09:30:43.158Z,12.17
2017-08-16T09:33:10.537Z,14.40
2017-08-16T09:35:37.868Z,14.70
2017-08-16T09:38:05.210Z,14.17
2017-08-16T09:40:32.850Z,13.10
2017-08-16T09:43:00.227Z,14.50
2017-08-16T09:45:27.579Z,13.60
2017-08-16T09:47:54.896Z,14.90
2017-08-16T09:50:22.219Z,14.37
2017-08-16T09:52:49.568Z,14.00
2017-08-16T09:55:16.993Z,11.50
2017-08-16T09:57:44.436Z,7.70
2017-08-16T10:00:11.776Z,7.70
2017-08-16T10:02:39.124Z,8.60
2017-08-16T10:05:06.424Z,6.30
2017-08-16T10:07:33.728Z,6.67
2017-08-16T10:10:01.098Z,6.43
2017-08-16T10:12:28.429Z,5.83
2017-08-16T10:14:55.808Z,6.60
2017-08-16T10:17:23.096Z,4.97
2017-08-16T10:19:50.531Z,5.23
2017-08-16T10:22:17.868Z,4.37
2017-08-16T10:24:45.250Z,4.70
2017-08-16T10:27:13.684Z,5.13
2017-08-16T10:29:41.025Z,6.93
2017-08-16T10:32:08.362Z,6.23
2017-08-16T10:34:35.698Z,6.70
2017-08-16T10:37:03.107Z,6.30
2017-08-16T10:39:30.435Z,5.70
2017-08-16T10:41:57.885Z,5.73
2017-08-16T10:44:25.202Z,4.70
2017-08-16T10:46:52.573Z,5.20
2017-08-16T10:49:19.893Z,5.57
2017-08-16T10:51:47.201Z,5.73
2017-08-16T10:54:14.517Z,5.40
2017-08-16T10:56:42.222Z,6.00
2017-08-16T10:59:09.529Z,5.17
2017-08-16T11:01:36.817Z,5.67
2017-08-16T11:04:04.178Z,6.23
2017-08-16T11:06:31.528Z,6.00
2017-08-16T11:08:58.842Z,5.70
2017-08-16T11:11:26.177Z,5.77
2017-08-16T11:13:53.473Z,6.53
2017-08-16T11:16:20.787Z,7.07
2017-08-16T11:18:48.088Z,6.50
2017-08-16T11:21:15.421Z,7.00
2017-08-16T11:23:42.722Z,8.10
2017-08-16T11:26:10.044Z,8.23
2017-08-16T11:28:37.372Z,8.10
2017-08-16T11:31:04.698Z,8.77
2017-08-16T11:33:32.047Z,8.57
2017-08-16T11:36:01.256Z,9.90
2017-08-16T11:38:28.587Z,10.30
2017-08-16T11:40:57.211Z,10.33
2017-08-16T11:43:24.514Z,9.80
2017-08-16T11:45:51.878Z,10.90
2017-08-16T11:48:20.200Z,12.83
2017-08-16T11:50:47.647Z,14.17
2017-08-16T11:53:14.982Z,14.67
2017-08-16T11:55:43.075Z,13.83
2017-08-16T11:58:10.413Z,14.80
2017-08-16T12:00:38.089Z,13.07
2017-08-16T12:03:06.783Z,12.73
2017-08-16T12:05:34.273Z,11.73
2017-08-16T12:08:01.607Z,11.93
2017-08-16T12:10:28.951Z,12.07
2017-08-16T12:12:56.260Z,12.87
2017-08-16T12:15:23.602Z,13.60
2017-08-16T12:17:52.680Z,14.10
2017-08-16T12:20:20.047Z,14.53
2017-08-16T12:22:48.422Z,14.10
2017-08-16T12:25:15.779Z,11.73
2017-08-16T12:27:43.122Z,10.13
2017-08-16T12:30:10.442Z,11.33
2017-08-16T12:32:39.203Z,12.67
2017-08-16T12:35:06.608Z,13.67
2017-08-16T12:37:33.961Z,13.40
2017-08-16T12:40:01.303Z,14.23
2017-08-16T12:42:28.697Z,14.30
2017-08-16T12:44:56.022Z,14.87
2017-08-16T12:47:23.375Z,15.77
2017-08-16T12:49:50.683Z,14.43
2017-08-16T12:52:18.013Z,16.10
2017-08-16T12:54:45.325Z,15.87
2017-08-16T12:57:12.939Z,16.17
2017-08-16T12:59:40.245Z,16.33
2017-08-16T13:02:07.586Z,15.00
2017-08-16T13:04:36.684Z,14.70
2017-08-16T13:07:03.985Z,13.70
2017-08-16T13:09:31.354Z,14.20
2017-08-16T13:11:58.674Z,13.40
2017-08-16T13:14:26.040Z,14.50
2017-08-16T13:16:53.360Z,15.07
2017-08-16T13:19:20.709Z,15.40
2017-08-16T13:21:48.045Z,14.47
2017-08-16T13:24:16.244Z,14.30
2017-08-16T13:26:43.544Z,13.50
2017-08-16T13:29:10.911Z,15.43
2017-08-16T13:31:38.215Z,14.70
2017-08-16T13:34:06.700Z,15.77
2017-08-16T13:36:34.070Z,14.60
2017-08-16T13:39:01.409Z,14.37
2017-08-16T13:41:28.710Z,13.77
2017-08-16T13:43:56.062Z,13.57
2017-08-16T13:46:23.378Z,14.00
2017-08-16T13:48:51.536Z,14.27
2017-08-16T13:51:18.841Z,12.90
2017-08-16T13:53:46.209Z,12.40
2017-08-16T13:56:13.541Z,12.80
2017-08-16T13:58:40.870Z,11.50
2017-08-16T14:01:08.386Z,12.70
2017-08-16T14:03:35.694Z,10.90
2017-08-16T14:06:03.067Z,10.97
2017-08-16T14:08:30.391Z,13.30
2017-08-16T14:10:57.743Z,14.23
2017-08-16T14:13:25.374Z,13.17
2017-08-16T14:15:52.747Z,10.63
2017-08-16T14:18:20.056Z,10.50
2017-08-16T14:20:47.397Z,13.00
2017-08-16T14:23:15.037Z,12.70
2017-08-16T14:25:42.403Z,11.20
2017-08-16T14:28:09.740Z,11.83
2017-08-16T14:30:37.082Z,11.40
2017-08-16T14:33:04.412Z,11.10
2017-08-16T14:35:31.761Z,10.80
2017-08-16T14:37:59.129Z,10.00
2017-08-16T14:40:30.404Z,11.43
2017-08-16T14:42:57.734Z,11.37
2017-08-16T14:45:25.082Z,11.60
2017-08-16T14:47:52.388Z,12.10
2017-08-16T14:50:20.299Z,12.23
2017-08-16T14:52:47.764Z,13.60
2017-08-16T14:55:16.436Z,12.77
2017-08-16T14:57:43.900Z,12.00
2017-08-16T15:00:11.201Z,11.60
2017-08-16T15:02:38.728Z,11.37
2017-08-16T15:05:06.041Z,11.17
2017-08-16T15:07:33.477Z,11.47
2017-08-16T15:10:02.762Z,11.00
2017-08-16T15:12:30.635Z,12.27
2017-08-16T15:14:57.954Z,11.07
2017-08-16T15:17:25.307Z,11.17
2017-08-16T15:19:52.728Z,11.43
2017-08-16T15:22:20.052Z,9.30
2017-08-16T15:24:47.381Z,9.93
2017-08-16T15:27:14.734Z,10.40
2017-08-16T15:29:44.995Z,11.80
2017-08-16T15:32:12.312Z,11.90
2017-08-16T15:34:39.920Z,11.20
2017-08-16T15:37:07.304Z,10.23
2017-08-16T15:39:35.898Z,10.77
2017-08-16T15:42:03.263Z,11.07
2017-08-16T15:44:30.854Z,12.23
2017-08-16T15:46:58.183Z,12.17
2017-08-16T15:49:25.538Z,13.23
2017-08-16T15:51:52.841Z,12.30
2017-08-16T15:54:20.534Z,11.70
2017-08-16T15:56:47.883Z,11.90
2017-08-16T15:59:15.206Z,12.00
2017-08-16T16:01:42.526Z,12.00
2017-08-16T16:04:09.905Z,11.47
2017-08-16T16:06:37.214Z,11.17
2017-08-16T16:09:04.587Z,11.10
2017-08-16T16:11:31.885Z,10.80
2017-08-16T16:13:59.255Z,11.80
2017-08-16T16:16:26.580Z,11.23
2017-08-16T16:18:53.902Z,12.40
2017-08-16T16:21:21.547Z,11.60
2017-08-16T16:23:48.923Z,11.10
2017-08-16T16:26:16.229Z,12.40
2017-08-16T16:28:43.589Z,10.93
2017-08-16T16:31:10.925Z,10.50
2017-08-16T16:33:39.514Z,11.03
2017-08-16T16:36:06.852Z,10.20
2017-08-16T16:38:34.201Z,9.13
2017-08-16T16:41:01.529Z,9.73
2017-08-16T16:43:28.848Z,10.13
2017-08-16T16:45:56.986Z,9.50
2017-08-16T16:48:24.334Z,9.07
2017-08-16T16:50:51.658Z,9.50
2017-08-16T16:53:19.021Z,10.33
2017-08-16T16:55:46.345Z,9.80
2017-08-16T16:58:13.658Z,8.93
2017-08-16T17:00:40.973Z,8.37
2017-08-16T17:03:08.565Z,9.00
2017-08-16T17:05:35.890Z,8.50
2017-08-16T17:08:03.187Z,8.77
2017-08-16T17:10:30.579Z,9.23
2017-08-16T17:12:57.873Z,8.30
2017-08-16T17:15:25.209Z,8.63
2017-08-16T17:17:52.555Z,9.40
2017-08-16T17:20:19.896Z,9.40
2017-08-16T17:22:47.237Z,9.27
2017-08-16T17:25:14.582Z,9.97
2017-08-16T17:27:41.901Z,9.73
2017-08-16T17:30:09.271Z,9.30
2017-08-16T17:32:36.631Z,9.97
2017-08-16T17:35:03.939Z,10.33
2017-08-16T17:37:31.300Z,9.70
2017-08-16T17:39:58.617Z,10.00
2017-08-16T17:42:26.006Z,10.10
2017-08-16T17:44:53.312Z,10.50
2017-08-16T17:47:20.666Z,11.20
2017-08-16T17:49:48.502Z,11.80
2017-08-16T17:52:15.863Z,11.40
2017-08-16T17:54:43.276Z,13.17
2017-08-16T17:57:10.648Z,12.07
2017-08-16T17:59:37.970Z,13.13
2017-08-16T18:02:05.321Z,13.17
2017-08-16T18:04:32.655Z,13.17
2017-08-16T18:06:59.983Z,14.03
2017-08-16T18:09:27.290Z,13.73
2017-08-16T18:11:54.640Z,15.80
2017-08-16T18:14:21.958Z,15.10
2017-08-16T18:16:49.296Z,14.30
2017-08-16T18:19:16.609Z,14.30
2017-08-16T18:21:43.933Z,14.80
2017-08-16T18:24:11.290Z,14.87
2017-08-16T18:26:38.750Z,16.23
2017-08-16T18:29:06.083Z,15.70
2017-08-16T18:31:33.475Z,15.97
2017-08-16T18:34:00.778Z,16.77
2017-08-16T18:36:28.124Z,16.37
2017-08-16T18:38:55.460Z,15.30
2017-08-16T18:41:22.831Z,16.37
2017-08-16T18:43:50.178Z,16.10
2017-08-16T18:46:17.518Z,16.30
2017-08-16T18:48:44.830Z,17.03
2017-08-16T18:51:12.251Z,17.67
2017-08-16T18:53:39.609Z,16.93
2017-08-16T18:56:07.026Z,16.20
2017-08-16T18:58:34.452Z,16.13
2017-08-16T19:01:01.776Z,16.27
2017-08-16T19:03:29.088Z,17.70
2017-08-16T19:05:56.396Z,17.07
2017-08-16T19:08:23.893Z,17.30
2017-08-16T19:10:51.203Z,18.07
2017-08-16T19:13:18.545Z,18.07
2017-08-16T19:15:45.924Z,18.10
2017-08-16T19:18:13.404Z,17.10
2017-08-16T19:20:40.796Z,18.27
2017-08-16T19:23:08.129Z,19.00
2017-08-16T19:25:35.509Z,19.07
2017-08-16T19:28:02.896Z,19.80
2017-08-16T19:30:30.272Z,20.07
2017-08-16T19:32:57.598Z,19.30
2017-08-16T19:35:24.941Z,21.47
2017-08-16T19:37:52.275Z,22.00
2017-08-16T19:40:19.647Z,20.80
2017-08-16T19:42:46.985Z,20.70
2017-08-16T19:45:14.297Z,20.90
2017-08-16T19:47:41.588Z,20.17
2017-08-16T19:50:08.971Z,23.13
2017-08-16T19:52:36.270Z,21.37
2017-08-16T19:55:03.616Z,19.87
2017-08-16T19:57:30.931Z,19.57
2017-08-16T19:59:58.321Z,20.77
2017-08-16T20:02:25.657Z,20.60
2017-08-16T20:04:53.077Z,22.57
2017-08-16T20:07:20.377Z,22.07
2017-08-16T20:09:47.701Z,21.10
2017-08-16T20:12:15.038Z,23.67
2017-08-16T20:14:42.385Z,23.87
2017-08-16T20:17:09.864Z,23.43
2017-08-16T20:19:37.279Z,24.20
2017-08-16T20:22:04.630Z,23.67
2017-08-16T20:24:32.005Z,24.23
2017-08-16T20:26:59.316Z,24.20
2017-08-16T20:29:26.635Z,23.40
2017-08-16T20:31:53.982Z,24.00
2017-08-16T20:34:21.403Z,24.67
2017-08-16T20:36:48.883Z,22.70
2017-08-16T20:39:16.189Z,23.40
2017-08-16T20:41:43.543Z,22.27
2017-08-16T20:44:10.841Z,22.43
2017-08-16T20:46:38.199Z,23.63
2017-08-16T20:49:05.511Z,22.63
2017-08-16T20:51:32.866Z,23.60
2017-08-16T20:54:00.234Z,24.00
2017-08-16T20:56:27.606Z,23.80
2017-08-16T20:58:54.922Z,23.07
2017-08-16T21:01:22.274Z,23.47
2017-08-16T21:03:49.598Z,24.23
2017-08-16T21:06:16.974Z,24.37
2017-08-16T21:08:44.323Z,23.30
2017-08-16T21:11:11.675Z,24.97
2017-08-16T21:13:38.965Z,24.67
2017-08-16T21:16:06.346Z,25.70
2017-08-16T21:18:33.642Z,24.63
2017-08-16T21:21:00.949Z,26.57
2017-08-16T21:23:28.275Z,28.80
2017-08-16T21:25:55.586Z,27.90
2017-08-16T21:28:22.901Z,30.40
2017-08-16T21:30:50.255Z,26.40
2017-08-16T21:33:17.597Z,29.07
2017-08-16T21:35:44.916Z,25.57
2017-08-16T21:38:12.277Z,27.40
2017-08-16T21:40:39.607Z,26.60
2017-08-16T21:43:06.979Z,27.63
2017-08-16T21:45:34.284Z,28.73
2017-08-16T21:48:01.656Z,28.40
2017-08-16T21:50:29.266Z,30.23
2017-08-16T21:52:56.592Z,30.23
2017-08-16T21:55:23.969Z,28.13
2017-08-16T21:57:51.498Z,28.60
2017-08-16T22:00:18.801Z,27.03
2017-08-16T22:02:46.320Z,27.50
2017-08-16T22:05:14.544Z,28.77
2017-08-16T22:07:41.860Z,28.90
2017-08-16T22:10:09.174Z,30.17
2017-08-16T22:12:36.512Z,28.87
2017-08-16T22:15:03.823Z,30.77
2017-08-16T22:17:31.174Z,30.77
2017-08-16T22:19:58.522Z,31.60
2017-08-16T22:22:25.861Z,31.80
2017-08-16T22:24:53.217Z,31.27
2017-08-16T22:27:20.525Z,30.50
2017-08-16T22:29:48.208Z,28.63
2017-08-16T22:32:15.518Z,30.23
2017-08-16T22:34:42.866Z,29.70
2017-08-16T22:37:10.180Z,31.30
2017-08-16T22:39:37.510Z,32.00
2017-08-16T22:42:04.814Z,30.00
2017-08-16T22:44:32.150Z,28.50
2017-08-16T22:46:59.448Z,29.70
2017-08-16T22:49:26.812Z,32.20
2017-08-16T22:51:54.151Z,32.07
2017-08-16T22:54:21.516Z,31.50
2017-08-16T22:56:48.836Z,29.10
2017-08-16T22:59:16.165Z,29.73
2017-08-16T23:01:43.738Z,31.10
2017-08-16T23:04:11.054Z,29.47
2017-08-16T23:06:38.434Z,29.90
2017-08-16T23:09:05.747Z,27.67
2017-08-16T23:11:33.089Z,28.43
2017-08-16T23:14:00.422Z,28.87
2017-08-16T23:16:27.780Z,31.17
2017-08-16T23:18:55.097Z,28.70
2017-08-16T23:21:22.457Z,28.97
2017-08-16T23:23:49.769Z,29.53
2017-08-16T23:26:17.092Z,28.70
2017-08-16T23:28:44.392Z,30.83
2017-08-16T23:31:11.730Z,31.57
2017-08-16T23:33:39.041Z,29.57
2017-08-16T23:36:06.402Z,30.50
2017-08-16T23:38:33.718Z,29.20
2017-08-16T23:41:01.085Z,31.70
2017-08-16T23:43:28.419Z,31.77
2017-08-16T23:45:55.776Z,30.30
2017-08-16T23:48:23.091Z,29.90
2017-08-16T23:50:50.458Z,30.97
2017-08-16T23:53:17.788Z,32.20
2017-08-16T23:55:45.155Z,29.43
2017-08-16T23:58:12.465Z,31.50
